Portada
METAR-TAF:

METAR-TAF

Aeroports :

Nii Ōshima, Japó

latitud: 34-47N, longitud: 139-22E, altitud: 38 m

Observació

L'informe es va fer fa 11 hores i 45 minuts, a les 08:00 UTC
Vent 24 kt del Sud-Oest amb ràfegues de 35 kt
Temperatura 19°C
Humitat 78%
Pressió 1005 hPa
Visibilitat 10 km o més
Escasses núvols a una alçada de 1500 ft
Núvols disperses a una alçada de 2000 ft
Cel ennuvolat a una alçada de 3500 ft

METAR: RJTO 210800Z 22024G35KT 9999 FEW015 SCT020 BKN035 19/15 Q1005

Hora: 04:45 (19:45 UTC)


TAF: manca

Observacions i pronòstics meteorològics de més de 4000 aeroports (METAR i TAF).

Les estacions disponibles són els punts grocs i vermells al mapa.

Posi el ratolí al punt desitjat per veure el nom de l'estació.

Feu clic per veure les observacions i els pronòstics meteorològics.

Per canviar el mapa: feu clic els botons verds amb una creu de color negre per apropar; al botó verd amb un guió per allunyar la imatge; o en les fletxes verdes per a mapes adjacents.


METAR-TAF: